< < Back
Terminal Aerodrome Forecast


Current Version              Previous Versions:   1  2  3  4  5  6  7  8  9  

Terminal Aerodrome Forecast

007
FTUS42 KTAE 160500
TAFTLH
TAF
KTLH 160520Z 1606/1706 36008KT P6SM SCT250
     FM161400 06010G18KT P6SM SKC
     FM162300 08006KT P6SM FEW045 SCT250=



Latest METAR

588
SAUS80 KWBC 161600
MTRTLH
METAR KTLH 161553Z 07012KT 10SM CLR 16/04 A3022 RMK AO2 SLP232
T01560044


USA.gov is the U.S. government's official web portal to all federal, state and local government web resources and services.